createdAt,value
2022-12-31T00:01:47.528Z,98156.00
2022-12-31T00:04:17.524Z,98158.00
2022-12-31T00:06:50.531Z,98165.00
2022-12-31T00:09:20.482Z,98168.00
2022-12-31T00:11:50.794Z,98167.00
2022-12-31T00:14:20.816Z,98145.00
2022-12-31T00:16:50.847Z,98130.00
2022-12-31T00:19:20.886Z,98124.00
2022-12-31T00:21:53.535Z,98131.00
2022-12-31T00:24:23.641Z,98154.00
2022-12-31T00:26:53.642Z,98141.00
2022-12-31T00:29:23.568Z,98118.00
2022-12-31T00:31:53.552Z,98104.00
2022-12-31T00:34:23.530Z,98112.00
2022-12-31T00:36:56.118Z,98143.00
2022-12-31T00:39:26.139Z,98153.00
2022-12-31T00:41:56.170Z,98133.00
2022-12-31T00:44:26.116Z,98133.00
2022-12-31T00:46:56.140Z,98147.00
2022-12-31T00:49:26.104Z,98152.00
2022-12-31T00:51:58.679Z,98134.00
2022-12-31T00:54:28.667Z,98126.00
2022-12-31T00:56:58.731Z,98162.00
2022-12-31T00:59:28.806Z,98178.00
2022-12-31T01:01:59.011Z,98173.00
2022-12-31T01:04:29.277Z,98180.00
2022-12-31T01:07:01.830Z,98193.00
2022-12-31T01:09:31.857Z,98195.00
2022-12-31T01:12:01.870Z,98180.00
2022-12-31T01:17:17.419Z,98171.00
2022-12-31T01:19:47.381Z,98154.00
2022-12-31T01:22:20.046Z,98178.00
2022-12-31T01:24:50.026Z,98159.00
2022-12-31T01:27:20.062Z,98172.00
2022-12-31T01:29:50.130Z,98165.00
2022-12-31T01:32:20.072Z,98166.00
2022-12-31T01:34:51.003Z,98159.00
2022-12-31T01:37:23.647Z,98153.00
2022-12-31T01:39:53.547Z,98130.00
2022-12-31T01:42:23.580Z,98114.00
2022-12-31T01:44:57.838Z,98111.00
2022-12-31T01:47:46.584Z,98104.00
2022-12-31T01:50:19.522Z,98117.00
2022-12-31T01:52:54.368Z,98118.00
2022-12-31T01:55:26.710Z,98144.00
2022-12-31T01:57:58.969Z,98084.00
2022-12-31T02:00:28.952Z,98126.00
2022-12-31T02:02:58.967Z,98142.00
2022-12-31T02:05:32.745Z,98167.00
2022-12-31T02:08:05.979Z,98157.00
2022-12-31T02:10:36.066Z,98161.00
2022-12-31T02:13:06.251Z,98166.00
2022-12-31T02:15:43.148Z,98176.00
2022-12-31T02:18:18.376Z,98164.00
2022-12-31T02:21:09.955Z,98187.00
2022-12-31T02:24:07.149Z,98190.00
2022-12-31T02:26:52.612Z,98180.00
2022-12-31T02:29:52.455Z,98191.00
2022-12-31T02:32:28.529Z,98180.00
2022-12-31T02:35:00.780Z,98190.00
2022-12-31T02:37:32.658Z,98181.00
2022-12-31T02:40:03.671Z,98172.00
2022-12-31T02:42:33.693Z,98174.00
2022-12-31T02:45:03.743Z,98159.00
2022-12-31T02:47:49.319Z,98144.00
2022-12-31T02:50:31.998Z,98137.00
2022-12-31T02:53:10.922Z,98143.00
2022-12-31T02:55:44.758Z,98128.00
2022-12-31T02:58:19.905Z,98111.00
2022-12-31T03:01:06.459Z,98118.00
2022-12-31T03:03:39.892Z,98115.00
2022-12-31T03:06:11.463Z,98123.00
2022-12-31T03:08:57.399Z,98132.00
2022-12-31T03:11:39.558Z,98155.00
2022-12-31T03:14:09.586Z,98154.00
2022-12-31T03:16:39.526Z,98161.00
2022-12-31T03:19:24.523Z,98151.00
2022-12-31T03:22:06.934Z,98174.00
2022-12-31T03:24:49.309Z,98200.00
2022-12-31T03:27:19.308Z,98185.00
2022-12-31T03:29:49.315Z,98204.00
2022-12-31T03:32:19.277Z,98220.00
2022-12-31T03:34:52.050Z,98183.00
2022-12-31T03:37:22.071Z,98164.00
2022-12-31T03:39:52.103Z,98184.00
2022-12-31T03:42:22.099Z,98191.00
2022-12-31T03:44:52.157Z,98202.00
2022-12-31T03:47:23.806Z,98178.00
2022-12-31T03:49:56.378Z,98185.00
2022-12-31T03:52:26.372Z,98189.00
2022-12-31T03:54:56.344Z,98168.00
2022-12-31T03:57:26.502Z,98194.00
2022-12-31T03:59:56.565Z,98178.00
2022-12-31T04:02:29.262Z,98194.00
2022-12-31T04:05:02.417Z,98185.00
2022-12-31T04:07:32.876Z,98190.00
2022-12-31T04:10:02.908Z,98187.00
2022-12-31T04:12:32.860Z,98198.00
2022-12-31T04:15:03.191Z,98178.00
2022-12-31T04:17:33.249Z,98212.00
2022-12-31T04:20:06.596Z,98233.00
2022-12-31T04:22:36.608Z,98230.00
2022-12-31T04:25:11.362Z,98250.00
2022-12-31T04:27:43.835Z,98225.00
2022-12-31T04:30:15.318Z,98205.00
2022-12-31T04:32:45.887Z,98217.00
2022-12-31T04:35:18.607Z,98204.00
2022-12-31T04:37:48.605Z,98220.00
2022-12-31T04:40:18.734Z,98207.00
2022-12-31T04:42:48.719Z,98205.00
2022-12-31T04:45:18.796Z,98227.00
2022-12-31T04:47:48.675Z,98250.00
2022-12-31T04:50:21.267Z,98245.00
2022-12-31T04:52:51.213Z,98251.00
2022-12-31T04:55:22.295Z,98241.00
2022-12-31T04:57:52.248Z,98247.00
2022-12-31T05:00:26.284Z,98283.00
2022-12-31T05:02:56.483Z,98278.00
2022-12-31T05:05:29.082Z,98292.00
2022-12-31T05:07:59.111Z,98305.00
2022-12-31T05:10:29.563Z,98308.00
2022-12-31T05:12:59.515Z,98314.00
2022-12-31T05:15:29.572Z,98308.00
2022-12-31T05:17:59.565Z,98305.00
2022-12-31T05:20:32.173Z,98291.00
2022-12-31T05:23:02.407Z,98273.00
2022-12-31T05:25:32.402Z,98268.00
2022-12-31T05:28:02.383Z,98261.00
2022-12-31T05:30:32.527Z,98254.00
2022-12-31T05:33:02.551Z,98263.00
2022-12-31T05:35:35.177Z,98256.00
2022-12-31T05:38:05.261Z,98272.00
2022-12-31T05:40:35.365Z,98288.00
2022-12-31T05:43:05.369Z,98299.00
2022-12-31T05:45:35.394Z,98290.00
2022-12-31T05:48:05.367Z,98293.00
2022-12-31T05:50:37.967Z,98305.00
2022-12-31T05:53:07.951Z,98312.00
2022-12-31T05:55:37.869Z,98318.00
2022-12-31T05:58:07.777Z,98322.00
2022-12-31T06:00:37.887Z,98334.00
2022-12-31T06:03:07.935Z,98320.00
2022-12-31T06:05:42.603Z,98325.00
2022-12-31T06:08:12.785Z,98327.00
2022-12-31T06:10:43.499Z,98327.00
2022-12-31T06:13:13.523Z,98321.00
2022-12-31T06:15:43.702Z,98310.00
2022-12-31T06:18:13.678Z,98306.00
2022-12-31T06:20:46.279Z,98321.00
2022-12-31T06:23:16.391Z,98323.00
2022-12-31T06:25:46.358Z,98335.00
2022-12-31T06:28:20.365Z,98335.00
2022-12-31T06:30:50.872Z,98331.00
2022-12-31T06:33:21.193Z,98320.00
2022-12-31T06:35:58.619Z,98339.00
2022-12-31T06:38:28.685Z,98338.00
2022-12-31T06:40:58.991Z,98341.00
2022-12-31T06:43:28.996Z,98335.00
2022-12-31T06:45:59.220Z,98321.00
2022-12-31T06:48:29.207Z,98309.00
2022-12-31T06:51:08.564Z,98302.00
2022-12-31T06:53:40.637Z,98295.00
2022-12-31T06:56:12.661Z,98296.00
2022-12-31T06:58:43.543Z,98301.00
2022-12-31T07:01:33.140Z,98303.00
2022-12-31T07:04:10.854Z,98312.00
2022-12-31T07:06:46.860Z,98323.00
2022-12-31T07:09:22.106Z,98301.00
2022-12-31T07:11:59.418Z,98308.00
2022-12-31T07:14:52.786Z,98303.00
2022-12-31T07:17:35.692Z,98280.00
2022-12-31T07:20:09.819Z,98261.00
2022-12-31T07:22:43.364Z,98263.00
2022-12-31T07:25:16.697Z,98232.00
2022-12-31T07:28:04.416Z,98272.00
2022-12-31T07:30:40.347Z,98279.00
2022-12-31T07:33:24.879Z,98283.00
2022-12-31T07:36:00.926Z,98289.00
2022-12-31T07:38:38.795Z,98300.00
2022-12-31T07:41:15.731Z,98294.00
2022-12-31T07:43:55.120Z,98312.00
2022-12-31T07:46:29.611Z,98300.00
2022-12-31T07:49:00.622Z,98295.00
2022-12-31T07:51:31.561Z,98293.00
2022-12-31T07:54:08.752Z,98290.00
2022-12-31T07:56:42.122Z,98306.00
2022-12-31T07:59:24.831Z,98295.00
2022-12-31T08:02:00.225Z,98300.00
2022-12-31T08:04:34.998Z,98297.00
2022-12-31T08:07:11.253Z,98306.00
2022-12-31T08:09:49.994Z,98302.00
2022-12-31T08:12:21.763Z,98280.00
2022-12-31T08:14:52.272Z,98299.00
2022-12-31T08:17:23.062Z,98300.00
2022-12-31T08:19:53.835Z,98308.00
2022-12-31T08:22:35.977Z,98327.00
2022-12-31T08:25:22.545Z,98325.00
2022-12-31T08:28:00.212Z,98327.00
2022-12-31T08:30:37.099Z,98330.00
2022-12-31T08:33:14.374Z,98328.00
2022-12-31T08:35:57.397Z,98337.00
2022-12-31T08:38:33.398Z,98335.00
2022-12-31T08:41:13.968Z,98357.00
2022-12-31T08:43:52.273Z,98356.00
2022-12-31T08:46:25.871Z,98368.00
2022-12-31T08:48:56.215Z,98371.00
2022-12-31T08:51:28.647Z,98376.00
2022-12-31T08:53:59.496Z,98374.00
2022-12-31T08:56:35.843Z,98340.00
2022-12-31T08:59:16.442Z,98347.00
2022-12-31T09:01:59.622Z,98345.00
2022-12-31T09:04:37.144Z,98335.00
2022-12-31T09:07:07.750Z,98335.00
2022-12-31T09:09:44.249Z,235282.00
2022-12-31T09:12:23.401Z,235282.00
2022-12-31T09:14:53.595Z,235282.00
2022-12-31T09:17:40.731Z,235282.00
2022-12-31T09:20:19.454Z,235282.00
2022-12-31T09:22:49.905Z,235282.00
2022-12-31T09:25:22.615Z,235282.00
2022-12-31T09:28:05.420Z,235282.00
2022-12-31T09:30:39.799Z,235282.00
2022-12-31T09:33:13.840Z,235282.00
2022-12-31T09:35:49.019Z,235282.00
2022-12-31T09:38:21.980Z,235282.00
2022-12-31T09:41:00.288Z,235282.00
2022-12-31T09:44:01.733Z,235282.00
2022-12-31T09:47:01.458Z,235282.00
2022-12-31T09:49:50.789Z,235282.00
2022-12-31T09:52:25.201Z,235282.00
2022-12-31T09:54:56.854Z,235282.00
2022-12-31T09:57:42.705Z,235282.00
2022-12-31T10:00:15.608Z,235282.00
2022-12-31T10:03:05.422Z,235282.00
2022-12-31T10:05:53.587Z,235282.00
2022-12-31T10:08:36.566Z,235282.00
2022-12-31T10:11:09.391Z,235282.00
2022-12-31T10:13:47.358Z,235282.00
2022-12-31T10:16:32.711Z,235282.00
2022-12-31T10:19:42.698Z,235282.00
2022-12-31T10:22:24.395Z,235282.00
2022-12-31T10:25:21.967Z,235282.00
2022-12-31T10:28:17.925Z,235282.00
2022-12-31T10:30:58.063Z,235282.00
2022-12-31T10:33:41.164Z,235282.00
2022-12-31T10:36:21.824Z,235282.00
2022-12-31T10:39:08.834Z,235282.00
2022-12-31T10:42:09.228Z,235282.00
2022-12-31T10:45:08.961Z,235282.00
2022-12-31T10:48:06.254Z,235282.00
2022-12-31T10:50:52.352Z,235282.00
2022-12-31T10:53:44.984Z,235282.00
2022-12-31T10:57:01.215Z,235282.00
2022-12-31T10:59:50.276Z,235282.00
2022-12-31T11:02:44.213Z,235282.00
2022-12-31T11:05:55.595Z,235282.00
2022-12-31T11:09:02.585Z,235282.00
2022-12-31T11:11:40.974Z,235282.00
2022-12-31T11:14:36.214Z,235282.00
2022-12-31T11:17:18.649Z,235282.00
2022-12-31T11:19:57.290Z,235282.00
2022-12-31T11:22:41.875Z,235282.00
2022-12-31T11:25:33.690Z,235282.00
2022-12-31T11:28:30.784Z,235282.00
2022-12-31T11:31:14.735Z,235282.00
2022-12-31T11:33:56.600Z,235282.00
2022-12-31T11:36:35.535Z,235282.00
2022-12-31T11:39:27.264Z,235282.00
2022-12-31T11:42:04.225Z,235282.00
2022-12-31T11:44:48.011Z,235282.00
2022-12-31T11:48:20.246Z,235282.00
2022-12-31T11:50:41.843Z,235282.00
2022-12-31T11:53:28.116Z,235282.00
2022-12-31T11:56:04.919Z,235282.00
2022-12-31T11:58:34.965Z,235282.00
2022-12-31T12:01:11.851Z,235282.00
2022-12-31T12:03:43.852Z,235282.00
2022-12-31T12:06:15.409Z,235282.00
2022-12-31T12:08:46.247Z,235282.00
2022-12-31T12:11:21.771Z,235282.00
2022-12-31T12:13:51.963Z,235282.00
2022-12-31T12:16:26.087Z,235282.00
2022-12-31T12:19:05.690Z,235282.00
2022-12-31T12:21:36.360Z,235282.00
2022-12-31T12:24:08.588Z,235282.00
2022-12-31T12:26:41.596Z,235282.00
2022-12-31T12:29:13.320Z,235282.00
2022-12-31T12:31:46.037Z,235282.00
2022-12-31T12:34:26.718Z,235282.00
2022-12-31T12:36:56.757Z,235282.00
2022-12-31T12:39:28.939Z,235282.00
2022-12-31T12:42:06.683Z,235282.00
2022-12-31T12:44:37.464Z,235282.00
2022-12-31T12:47:14.049Z,235282.00
2022-12-31T12:49:45.763Z,235282.00
2022-12-31T12:52:38.475Z,235282.00
2022-12-31T12:55:16.364Z,235282.00
2022-12-31T12:57:49.835Z,235282.00
2022-12-31T13:00:22.254Z,235282.00
2022-12-31T13:03:22.578Z,235282.00
2022-12-31T13:06:07.921Z,235282.00
2022-12-31T13:08:52.815Z,235282.00
2022-12-31T13:11:33.966Z,235282.00
2022-12-31T13:14:09.199Z,235282.00
2022-12-31T13:16:45.503Z,235282.00
2022-12-31T13:19:22.972Z,235282.00
2022-12-31T13:21:58.450Z,235282.00
2022-12-31T13:24:36.329Z,235282.00
2022-12-31T13:27:13.328Z,235282.00
2022-12-31T13:29:45.117Z,235282.00
2022-12-31T13:32:21.307Z,235282.00
2022-12-31T13:34:59.025Z,235282.00
2022-12-31T13:37:31.667Z,235282.00
2022-12-31T13:40:04.844Z,235282.00
2022-12-31T13:42:41.815Z,235282.00
2022-12-31T13:45:16.157Z,235282.00
2022-12-31T13:47:49.509Z,235282.00
2022-12-31T13:50:26.826Z,235282.00
2022-12-31T13:53:01.158Z,235282.00
2022-12-31T13:55:34.312Z,235282.00
2022-12-31T13:58:10.844Z,235282.00
2022-12-31T14:00:44.187Z,235282.00
2022-12-31T14:03:17.521Z,235282.00
2022-12-31T14:05:55.757Z,235282.00
2022-12-31T14:08:25.875Z,235282.00
2022-12-31T14:11:03.672Z,235282.00
2022-12-31T14:13:52.817Z,235282.00
2022-12-31T14:16:24.311Z,235282.00
2022-12-31T14:19:02.198Z,235282.00
2022-12-31T14:21:37.655Z,235282.00
2022-12-31T14:24:12.974Z,235282.00
2022-12-31T14:26:44.924Z,235282.00
2022-12-31T14:29:23.852Z,235282.00
2022-12-31T14:32:18.380Z,235282.00
2022-12-31T14:34:55.220Z,235282.00
2022-12-31T14:37:34.893Z,235282.00
2022-12-31T14:40:14.358Z,235282.00
2022-12-31T14:42:48.625Z,235282.00
2022-12-31T14:45:36.548Z,235282.00
2022-12-31T14:48:17.151Z,235282.00
2022-12-31T14:50:50.294Z,235282.00
2022-12-31T14:53:25.932Z,235282.00
2022-12-31T14:56:04.087Z,235282.00
2022-12-31T14:58:36.447Z,235282.00
2022-12-31T15:01:09.177Z,235282.00
2022-12-31T15:03:45.718Z,235282.00
2022-12-31T15:06:38.271Z,235282.00
2022-12-31T15:09:20.133Z,235282.00
2022-12-31T15:12:10.523Z,235282.00
2022-12-31T15:15:06.549Z,235282.00
2022-12-31T15:17:45.701Z,235282.00
2022-12-31T15:20:18.812Z,235282.00
2022-12-31T15:22:49.837Z,235282.00
2022-12-31T15:25:40.035Z,235282.00
2022-12-31T15:28:24.116Z,235282.00
2022-12-31T15:30:54.761Z,235282.00
2022-12-31T15:33:29.161Z,235282.00
2022-12-31T15:36:00.505Z,235282.00
2022-12-31T15:38:36.692Z,235282.00
2022-12-31T15:41:28.848Z,235282.00
2022-12-31T15:44:01.463Z,235282.00
2022-12-31T15:46:35.056Z,235282.00
2022-12-31T15:49:11.756Z,235282.00
2022-12-31T15:51:48.251Z,235282.00
2022-12-31T15:54:26.182Z,235282.00
2022-12-31T15:57:00.248Z,235282.00
2022-12-31T15:59:33.016Z,235282.00
2022-12-31T16:02:03.150Z,235282.00
2022-12-31T16:04:34.897Z,235282.00
2022-12-31T16:07:06.535Z,235282.00
2022-12-31T16:09:37.387Z,235282.00
2022-12-31T16:12:14.229Z,235282.00
2022-12-31T16:14:46.752Z,235282.00
2022-12-31T16:17:29.625Z,235282.00
2022-12-31T16:20:00.063Z,235282.00
2022-12-31T16:22:32.831Z,235282.00
2022-12-31T16:27:57.215Z,235282.00
2022-12-31T16:30:29.719Z,235282.00
2022-12-31T16:33:04.188Z,235282.00
2022-12-31T16:35:36.475Z,235282.00
2022-12-31T16:38:14.315Z,235282.00
2022-12-31T16:40:45.658Z,235282.00
2022-12-31T16:43:29.170Z,235282.00
2022-12-31T16:46:00.556Z,235282.00
2022-12-31T16:48:30.586Z,235282.00
2022-12-31T16:51:00.599Z,235282.00
2022-12-31T16:53:32.732Z,235282.00
2022-12-31T16:56:05.225Z,235282.00
2022-12-31T16:58:39.410Z,235282.00
2022-12-31T17:01:15.178Z,235282.00
2022-12-31T17:03:47.895Z,235282.00
2022-12-31T17:06:20.096Z,235282.00
2022-12-31T17:08:54.878Z,235282.00
2022-12-31T17:11:31.457Z,235282.00
2022-12-31T17:14:14.257Z,235282.00
2022-12-31T17:17:02.204Z,235282.00
2022-12-31T17:19:41.020Z,235282.00
2022-12-31T17:22:13.361Z,235282.00
2022-12-31T17:24:43.593Z,235282.00
2022-12-31T17:27:13.682Z,235282.00
2022-12-31T17:29:48.353Z,235282.00
2022-12-31T17:32:32.986Z,235282.00
2022-12-31T17:35:02.922Z,235282.00
2022-12-31T17:37:34.090Z,235282.00
2022-12-31T17:40:48.783Z,235282.00
2022-12-31T17:42:54.408Z,235282.00
2022-12-31T17:45:27.038Z,235282.00
2022-12-31T17:47:58.526Z,235282.00
2022-12-31T17:50:29.603Z,235282.00
2022-12-31T17:53:00.656Z,235282.00
2022-12-31T17:55:31.713Z,235282.00
2022-12-31T17:58:01.813Z,235282.00
2022-12-31T18:00:36.003Z,235282.00
2022-12-31T18:03:06.225Z,235282.00
2022-12-31T18:05:36.266Z,235282.00
2022-12-31T18:08:06.403Z,235282.00
2022-12-31T18:10:39.076Z,235282.00
2022-12-31T18:13:14.241Z,235282.00
2022-12-31T18:15:47.157Z,235282.00
2022-12-31T18:18:25.945Z,235282.00
2022-12-31T18:20:56.954Z,235282.00
2022-12-31T18:23:30.420Z,235282.00
2022-12-31T18:26:00.471Z,235282.00
2022-12-31T18:28:30.447Z,235282.00
2022-12-31T18:31:03.084Z,235282.00
2022-12-31T18:33:33.159Z,235282.00
2022-12-31T18:36:10.714Z,235282.00
2022-12-31T18:38:41.032Z,235282.00
2022-12-31T18:41:17.533Z,235282.00
2022-12-31T18:43:47.590Z,235282.00
2022-12-31T18:46:25.254Z,235282.00
2022-12-31T18:48:55.378Z,235282.00
2022-12-31T18:51:31.833Z,235282.00
2022-12-31T18:54:03.047Z,235282.00
2022-12-31T18:56:33.182Z,235282.00
2022-12-31T18:59:03.381Z,235282.00
2022-12-31T19:01:38.062Z,235282.00
2022-12-31T19:04:15.317Z,235282.00
2022-12-31T19:06:45.433Z,235282.00
2022-12-31T19:09:43.488Z,235282.00
2022-12-31T19:12:05.620Z,235282.00
2022-12-31T19:14:35.677Z,235282.00
2022-12-31T19:19:37.402Z,235282.00
2022-12-31T19:22:07.391Z,235282.00
2022-12-31T19:24:37.415Z,235282.00
2022-12-31T19:27:07.398Z,235282.00
2022-12-31T19:29:37.564Z,235282.00
2022-12-31T19:32:10.271Z,235282.00
2022-12-31T19:34:40.360Z,235282.00
2022-12-31T19:37:11.615Z,235282.00
2022-12-31T19:39:41.674Z,235282.00
2022-12-31T19:42:14.669Z,235282.00
2022-12-31T19:44:44.699Z,235282.00
2022-12-31T19:47:17.711Z,235282.00
2022-12-31T19:49:48.063Z,235282.00
2022-12-31T19:52:18.002Z,235282.00
2022-12-31T19:54:48.067Z,235282.00
2022-12-31T19:57:18.025Z,235282.00
2022-12-31T19:59:47.996Z,235282.00
2022-12-31T20:02:20.687Z,235282.00
2022-12-31T20:04:50.763Z,235282.00
2022-12-31T20:07:25.369Z,235282.00
2022-12-31T20:09:57.183Z,235282.00
2022-12-31T20:12:27.319Z,235282.00
2022-12-31T20:14:57.294Z,235282.00
2022-12-31T20:17:29.922Z,235282.00
2022-12-31T20:19:59.939Z,235282.00
2022-12-31T20:22:29.946Z,235282.00
2022-12-31T20:24:59.888Z,235282.00
2022-12-31T20:27:29.908Z,235282.00
2022-12-31T20:29:59.839Z,235282.00
2022-12-31T20:32:32.470Z,235282.00
2022-12-31T20:35:02.452Z,235282.00
2022-12-31T20:37:32.391Z,235282.00
2022-12-31T20:40:02.334Z,235282.00
2022-12-31T20:42:32.483Z,235282.00
2022-12-31T20:45:02.421Z,235282.00
2022-12-31T20:47:35.041Z,235282.00
2022-12-31T20:50:12.798Z,235282.00
2022-12-31T20:52:43.037Z,235282.00
2022-12-31T20:55:14.151Z,235282.00
2022-12-31T20:57:44.191Z,235282.00
2022-12-31T21:00:15.251Z,235282.00
2022-12-31T21:02:56.384Z,235282.00
2022-12-31T21:05:30.803Z,235282.00
2022-12-31T21:08:00.911Z,235282.00
2022-12-31T21:10:31.031Z,235282.00
2022-12-31T21:12:59.045Z,235282.00
2022-12-31T21:15:29.069Z,235282.00
2022-12-31T21:18:02.504Z,235282.00
2022-12-31T21:20:32.532Z,235282.00
2022-12-31T21:23:02.579Z,235282.00
2022-12-31T21:25:32.592Z,235282.00
2022-12-31T21:28:02.584Z,235282.00
2022-12-31T21:30:32.665Z,235282.00
2022-12-31T21:33:05.187Z,235282.00
2022-12-31T21:35:48.414Z,235282.00
2022-12-31T21:38:22.138Z,235282.00
2022-12-31T21:40:52.427Z,235282.00
2022-12-31T21:43:22.799Z,235282.00
2022-12-31T21:46:02.738Z,235282.00
2022-12-31T21:48:35.772Z,235282.00
2022-12-31T21:51:12.991Z,235282.00
2022-12-31T21:53:43.235Z,235282.00
2022-12-31T21:56:11.907Z,235282.00
2022-12-31T21:58:43.311Z,235282.00
2022-12-31T22:01:42.771Z,235282.00
2022-12-31T22:04:43.194Z,235282.00
2022-12-31T22:07:05.464Z,235282.00
2022-12-31T22:09:35.677Z,235282.00
2022-12-31T22:12:05.677Z,235282.00
2022-12-31T22:14:35.714Z,235282.00
2022-12-31T22:17:05.649Z,235282.00
2022-12-31T22:19:54.632Z,235282.00
2022-12-31T22:22:28.204Z,235282.00
2022-12-31T22:24:59.354Z,235282.00
2022-12-31T22:27:30.117Z,235282.00
2022-12-31T22:30:00.211Z,235282.00
2022-12-31T22:32:30.251Z,235282.00
2022-12-31T22:35:02.897Z,235282.00
2022-12-31T22:37:56.279Z,235282.00
2022-12-31T22:40:23.041Z,235282.00
2022-12-31T22:42:53.071Z,235282.00
2022-12-31T22:45:23.203Z,235282.00
2022-12-31T22:47:53.226Z,235282.00
2022-12-31T22:50:25.906Z,235282.00
2022-12-31T22:52:55.945Z,235282.00
2022-12-31T22:55:25.866Z,235282.00
2022-12-31T22:57:55.808Z,235282.00
2022-12-31T23:00:40.298Z,235282.00
2022-12-31T23:03:10.909Z,235282.00
2022-12-31T23:05:43.570Z,235282.00
2022-12-31T23:08:22.403Z,235282.00
2022-12-31T23:11:01.141Z,235282.00
2022-12-31T23:13:50.089Z,235282.00
2022-12-31T23:16:33.649Z,235282.00
2022-12-31T23:19:16.430Z,235282.00
2022-12-31T23:22:01.464Z,235282.00
2022-12-31T23:24:31.539Z,235282.00
2022-12-31T23:27:01.643Z,235282.00
2022-12-31T23:29:31.620Z,235282.00
2022-12-31T23:32:01.716Z,235282.00
2022-12-31T23:34:31.692Z,235282.00
2022-12-31T23:37:05.289Z,235282.00
2022-12-31T23:39:35.314Z,235282.00
2022-12-31T23:42:05.209Z,235282.00
2022-12-31T23:44:35.149Z,235282.00
2022-12-31T23:47:05.278Z,235282.00
2022-12-31T23:49:35.393Z,235282.00
2022-12-31T23:52:08.005Z,235282.00
2022-12-31T23:54:38.160Z,235282.00
2022-12-31T23:57:08.217Z,235282.00
2022-12-31T23:59:38.207Z,98572.00
